Bergheim, Austria
Current Conditions -  °F | °C
As of 7:20 AM on Thursday 23 Oct 2014 (Local Time) from LOWS Reporting Station
Moderate Rain Moderate Rain  
Wind Chill: 37°   Ceiling: 1600
Heat Index: 45°   Visibility: 4mi
Dew Point: 41°   Wind: 17mph
Humidity: 87%   Direction: 300°WNW
Pressure: 29.94"   Gusts: NA
Location:  47.84°N, 13.02°E
Report Text: LOWS 230520Z 30015KT 7000 RA FEW008 SCT013 BKN016 07/05 Q1014 NOSIG
Loading
Personal Weather Stations






























Interactive Weather Map
Tropical Storm Tracking
New forecast layout! Learn more

10-Day Weather Forecast

Advertisements
Track Severe Weather on mobile